ARCT2: Red River, ARthur City

                                SHEF ID:       ARCT2     Red River at Arthur City, TX
STATION TYPE: Stream Gauge
Regulating: Stage = 27.00, Flow = 84609

PRECIP ELEVATION STAGE STAGE(2) RIV-FLOW BAT-LOAD
in ft ft ft cfs volt
Ccp-Rev Ccp-Rev Ccp-Rev Ccp-Rev Ccp-Rev Ccp-Rev
(America/Chicago)
04/27 00:00 0.00 ---- 9.56 ---- 9748 12.57
04/27 01:00 0.00 ---- 9.53 ---- 9685 12.49
04/27 02:00 0.00 ---- 9.50 ---- 9623 12.49
04/27 03:00 0.00 ---- 9.44 ---- 9498 12.49
04/27 04:00 0.00 ---- 9.37 ---- 9354 12.49
04/27 05:00 0.00 ---- 9.34 ---- 9292 12.41
04/27 06:00 0.00 ---- 9.28 ---- 9170 12.41
04/27 07:00 0.00 ---- 9.21 ---- 9027 12.41
04/27 08:00 0.00 ---- 9.15 ---- 8906 12.49
04/27 09:00 0.00 ---- 9.10 ---- 8806 13.13
04/27 10:00 0.00 ---- 9.02 ---- 8646 13.60
04/27 11:00 0.00 ---- 9.01 ---- 8626 14.00
04/27 12:00 0.00 ---- 9.01 ---- 8626 13.44
04/27 13:00 0.00 ---- 9.02 ---- 8646 13.44
04/27 14:00 0.00 ---- 9.02 ---- 8646 13.53
04/27 15:00 0.00 ---- 9.09 ---- 8785 13.44
04/27 16:00 0.00 ---- 9.12 ---- 8846 13.44
04/27 17:00 0.00 ---- 9.20 ---- 9007 13.37
04/27 18:00 0.00 ---- 9.26 ---- 9129 13.37
04/27 19:00 0.00 ---- 9.36 ---- 9333 13.21
04/27 20:00 0.00 ---- 9.45 ---- 9519 13.13
04/27 21:00 0.00 ---- 9.54 ---- 9706 12.73
04/27 22:00 0.00 ---- 9.64 ---- 9915 12.57
04/27 23:00 0.00 ---- 9.71 ---- 10063 12.57
Data processed at Tue 28Apr2026 04:30 GMT

NOTICE: If you are parsing this page

Please convert to using our Data API. Starting early 2026 we will be migrating to: https://water.usace.army.mil with modern pages rendered in JavaScript. When this migration completes you will no longer be able to scrape this page! CWMSDataAPI (CDA)

Timeseries IDs (TSIDs)

TSIDs used from left to right in the data table
ARTH.Precip-Inc.Total.1Hour.1Hour.Ccp-Rev
ARTH.Stage.Inst.1Hour.0.Ccp-Rev
ARTH.Stage-Alt.Inst.1Hour.0.Ccp-Rev
ARTH.Flow.Inst.1Hour.0.Ccp-Rev
ARTH.Volt-Battery Load.Inst.1Hour.0.Ccp-Rev

                            

All information presented herein is the property of the government of the United States of America and may be revised or deleted at any time without prior notice. Dissemination of this information without the expressed written consent of the Public Affairs Office, Tulsa District U.S. Army Corps of Engineers is strictly prohibited. These data are gathered electronically and, as presented, have NOT undergone any form of quality control. These data are NOT guaranteed to be valid or correct.